Time;durP1;ratioP1;P1;durP2;ratioP2;P2;SDS_P1;SDS_P2;PMS_P1;PMS_P2;Temp;Humidity;BMP_temperature;BMP_pressure;BME280_temperature;BME280_humidity;BME280_pressure;Samples;Min_cycle;Max_cycle;Signal;HPM_P1;HPM_P2
2024/03/16 00:00:07;;;;;;;1.58;0.93;;;;;;;11.67;76.01;96558.25;4939180;29;20138;-78
2024/03/16 00:02:35;;;;;;;0.73;0.52;;;;;;;11.71;77.16;96560.28;4939623;29;20059;-78
2024/03/16 00:05:03;;;;;;;1.20;0.60;;;;;;;11.77;76.99;96560.53;4938507;29;20102;-78
2024/03/16 00:07:31;;;;;;;1.75;0.88;;;;;;;11.73;77.23;96555.69;4938976;29;20082;-78
2024/03/16 00:09:59;;;;;;;2.60;0.70;;;;;;;11.75;77.62;96568.56;4939119;29;20500;-78
2024/03/16 00:12:28;;;;;;;0.52;0.47;;;;;;;11.73;75.47;96557.50;4938704;29;20081;-78
2024/03/16 00:14:56;;;;;;;0.95;0.38;;;;;;;11.66;73.90;96556.66;4938806;29;20051;-78
2024/03/16 00:17:24;;;;;;;1.20;0.40;;;;;;;11.54;73.79;96559.78;4938650;29;20055;-78
2024/03/16 00:19:52;;;;;;;0.73;0.50;;;;;;;11.45;73.48;96555.66;4940186;29;20062;-78
2024/03/16 00:22:21;;;;;;;1.00;0.40;;;;;;;11.37;73.52;96550.59;4940175;29;20058;-78
2024/03/16 00:24:49;;;;;;;0.22;0.22;;;;;;;11.30;73.73;96554.91;4939765;29;20059;-78
2024/03/16 00:27:18;;;;;;;0.55;0.38;;;;;;;11.27;74.10;96553.50;4939944;29;20051;-78
2024/03/16 00:29:45;;;;;;;1.60;0.28;;;;;;;11.22;73.58;96553.25;4941445;29;20059;-78
2024/03/16 00:32:13;;;;;;;1.48;0.32;;;;;;;11.17;73.38;96552.19;4941461;29;20095;-79
2024/03/16 00:34:41;;;;;;;1.00;0.38;;;;;;;11.13;73.34;96552.56;4942309;29;20055;-80
2024/03/16 00:37:09;;;;;;;0.50;0.30;;;;;;;11.09;73.36;96555.75;4942096;29;20056;-82
2024/03/16 00:39:37;;;;;;;0.50;0.47;;;;;;;11.03;73.33;96559.09;4942334;29;20055;-80
2024/03/16 00:42:04;;;;;;;6.15;2.60;;;;;;;11.00;73.28;96551.63;4941181;29;20511;-78
2024/03/16 00:44:32;;;;;;;5.90;2.35;;;;;;;11.00;75.26;96552.44;4942103;29;20058;-79
2024/03/16 00:47:00;;;;;;;8.10;2.72;;;;;;;11.02;74.24;96550.47;4943361;29;20467;-78
2024/03/16 00:49:28;;;;;;;4.97;1.77;;;;;;;10.97;73.76;96550.19;4946328;29;20483;-81
2024/03/16 00:51:56;;;;;;;5.60;1.73;;;;;;;10.94;73.79;96547.97;4945329;29;20531;-82
2024/03/16 00:54:24;;;;;;;12.18;3.35;;;;;;;10.94;73.61;96547.97;4945862;29;20075;-79
2024/03/16 00:56:52;;;;;;;4.50;1.85;;;;;;;10.94;73.53;96553.19;4945911;29;20442;-78
2024/03/16 00:59:20;;;;;;;4.57;1.80;;;;;;;10.95;74.87;96557.38;4945304;29;20047;-81
2024/03/16 01:01:48;;;;;;;3.67;1.88;;;;;;;10.97;74.33;96558.00;4945332;29;20047;-81
2024/03/16 01:04:16;;;;;;;4.05;1.35;;;;;;;11.01;75.64;96554.03;4945450;29;20051;-79
2024/03/16 01:06:44;;;;;;;2.47;1.45;;;;;;;11.07;74.98;96558.53;4945562;29;20043;-79
2024/03/16 01:09:16;;;;;;;2.00;1.00;;;;;;;11.14;75.81;96553.38;4945132;29;20515;-78
2024/03/16 01:11:43;;;;;;;1.42;0.52;;;;;;;11.18;74.19;96549.41;4946220;29;20055;-81
2024/03/16 01:14:11;;;;;;;1.38;0.68;;;;;;;11.17;74.48;96553.00;4946109;29;20066;-81
2024/03/16 01:16:39;;;;;;;0.25;0.25;;;;;;;11.21;75.33;96556.03;4944780;29;20459;-78
2024/03/16 01:19:07;;;;;;;0.80;0.50;;;;;;;11.22;75.14;96549.84;4943392;29;20078;-79
2024/03/16 01:21:35;;;;;;;1.98;0.38;;;;;;;11.24;76.27;96559.09;4943089;29;20129;-79
2024/03/16 01:24:03;;;;;;;1.45;0.82;;;;;;;11.29;76.86;96561.16;4943229;29;20055;-79
2024/03/16 01:26:31;;;;;;;0.75;0.40;;;;;;;11.35;76.42;96570.84;4944083;29;20075;-79
2024/03/16 01:29:01;;;;;;;0.43;0.43;;;;;;;11.41;77.09;96559.63;4943244;29;20503;-79
2024/03/16 01:31:29;;;;;;;0.77;0.40;;;;;;;11.41;75.40;96564.84;4942866;29;20047;-79
2024/03/16 01:33:57;;;;;;;1.58;0.50;;;;;;;11.44;76.51;96561.88;4942463;29;20090;-80
2024/03/16 01:36:25;;;;;;;0.60;0.30;;;;;;;11.44;75.34;96564.50;4941778;29;20043;-78
2024/03/16 01:38:53;;;;;;;1.20;0.50;;;;;;;11.47;76.49;96571.94;4941832;29;20059;-78
2024/03/16 01:41:23;;;;;;;0.68;0.30;;;;;;;11.50;76.93;96570.75;4943170;29;20051;-79
2024/03/16 01:43:51;;;;;;;0.82;0.43;;;;;;;11.50;76.93;96563.75;4941514;29;20503;-79
2024/03/16 01:46:19;;;;;;;0.75;0.22;;;;;;;11.44;74.42;96555.88;4942007;29;20054;-79
2024/03/16 01:48:51;;;;;;;1.50;0.40;;;;;;;11.37;74.36;96553.19;4942636;29;20062;-79
2024/03/16 01:51:19;;;;;;;0.70;0.38;;;;;;;11.37;73.67;96550.59;4943035;29;20546;-78
2024/03/16 01:53:47;;;;;;;1.30;0.40;;;;;;;11.35;73.50;96549.97;4942232;29;20396;-78
2024/03/16 01:56:16;;;;;;;0.75;0.35;;;;;;;11.33;72.97;96541.50;4941802;29;20044;-79
2024/03/16 01:58:45;;;;;;;1.75;0.65;;;;;;;11.29;72.99;96537.66;4940769;29;20423;-79
2024/03/16 02:01:13;;;;;;;1.55;0.45;;;;;;;11.24;73.13;96532.16;4942768;29;20490;-79
2024/03/16 02:03:42;;;;;;;2.30;0.38;;;;;;;11.18;73.09;96532.94;4942341;29;20066;-80
2024/03/16 02:06:10;;;;;;;2.13;0.47;;;;;;;11.12;73.48;96530.06;4944044;29;20535;-81
2024/03/16 02:08:38;;;;;;;0.63;0.30;;;;;;;11.12;73.67;96537.88;4944331;29;20051;-81
2024/03/16 02:11:06;;;;;;;2.28;0.30;;;;;;;11.10;73.52;96541.69;4944273;29;20079;-79
2024/03/16 02:13:34;;;;;;;0.65;0.50;;;;;;;11.09;73.77;96540.88;4944651;29;20086;-81
2024/03/16 02:16:02;;;;;;;1.88;0.55;;;;;;;11.09;74.08;96550.53;4957856;29;20087;-84
2024/03/16 02:18:30;;;;;;;0.40;0.40;;;;;;;11.16;76.68;96550.59;4959232;29;20065;-84
2024/03/16 02:20:58;;;;;;;0.15;0.15;;;;;;;11.23;75.58;96541.81;4960281;29;20059;-82
2024/03/16 02:23:26;;;;;;;2.55;0.73;;;;;;;11.28;77.17;96538.63;4959425;29;20055;-83
2024/03/16 02:25:54;;;;;;;1.30;0.43;;;;;;;11.33;77.70;96542.31;4959430;29;20054;-82
2024/03/16 02:28:22;;;;;;;0.22;0.22;;;;;;;11.33;75.50;96536.28;4959910;29;20051;-80
2024/03/16 02:30:49;;;;;;;0.30;0.20;;;;;;;11.26;74.34;96538.00;4949499;29;20180;-79
2024/03/16 02:33:17;;;;;;;1.42;0.40;;;;;;;11.22;74.51;96542.81;4943578;29;20167;-79
2024/03/16 02:35:45;;;;;;;0.68;0.30;;;;;;;11.21;75.49;96543.00;4943393;29;20078;-78
2024/03/16 02:38:13;;;;;;;1.80;0.30;;;;;;;11.21;75.00;96543.00;4943884;29;20054;-78
2024/03/16 02:40:42;;;;;;;0.50;0.20;;;;;;;11.21;74.94;96548.22;4942992;29;20090;-80
2024/03/16 02:43:10;;;;;;;1.42;0.40;;;;;;;11.16;74.05;96540.13;4957082;29;20074;-81
2024/03/16 02:45:38;;;;;;;0.68;0.30;;;;;;;11.09;73.84;96538.28;4959189;29;20138;-83
2024/03/16 02:48:05;;;;;;;2.25;0.57;;;;;;;11.06;73.26;96536.03;4961014;29;20058;-80
2024/03/16 02:50:33;;;;;;;1.00;0.30;;;;;;;11.03;73.61;96546.03;4960450;29;20079;-86
2024/03/16 02:53:01;;;;;;;1.42;0.45;;;;;;;11.01;73.31;96532.38;4961133;29;20039;-82
2024/03/16 02:55:28;;;;;;;1.98;0.30;;;;;;;11.01;75.24;96530.56;4950180;29;20086;-78
2024/03/16 02:57:56;;;;;;;0.85;0.30;;;;;;;11.02;74.50;96534.78;4942505;29;20051;-80
2024/03/16 03:00:24;;;;;;;1.42;0.30;;;;;;;11.02;74.63;96533.97;4942860;29;20063;-79
2024/03/16 03:02:52;;;;;;;0.52;0.38;;;;;;;11.04;74.83;96527.59;4943329;29;20126;-78
2024/03/16 03:05:22;;;;;;;0.82;0.40;;;;;;;11.08;74.48;96528.81;4957897;29;20078;-82
2024/03/16 03:07:50;;;;;;;1.67;0.57;;;;;;;11.09;74.23;96529.63;4954260;29;20059;-79
2024/03/16 03:10:18;;;;;;;1.75;0.45;;;;;;;11.09;74.36;96535.66;4951924;29;20051;-82
2024/03/16 03:12:45;;;;;;;0.50;0.20;;;;;;;11.09;74.22;96530.44;4951138;29;20087;-81
2024/03/16 03:15:13;;;;;;;0.60;0.40;;;;;;;11.07;75.08;96532.44;4951486;29;20052;-83
2024/03/16 03:17:42;;;;;;;1.05;0.32;;;;;;;11.10;75.62;96532.03;4949025;29;20138;-83
2024/03/16 03:20:11;;;;;;;0.68;0.10;;;;;;;11.15;76.60;96534.13;4949375;29;20055;-82
2024/03/16 03:22:39;;;;;;;0.30;0.30;;;;;;;11.17;75.29;96529.50;4947387;29;20597;-83
2024/03/16 03:25:07;;;;;;;0.50;0.20;;;;;;;11.18;74.83;96530.31;4948302;29;20051;-81
2024/03/16 03:27:35;;;;;;;1.50;0.47;;;;;;;11.18;73.94;96523.28;4946836;29;20083;-79
2024/03/16 03:30:03;;;;;;;2.20;0.30;;;;;;;11.15;74.58;96526.28;4939177;29;20485;-79
2024/03/16 03:32:32;;;;;;;0.20;0.20;;;;;;;11.14;73.36;96528.06;4939952;29;20500;-79
2024/03/16 03:35:00;;;;;;;0.10;0.10;;;;;;;11.11;74.14;96538.09;4937486;29;20561;-78
2024/03/16 03:37:28;;;;;;;2.15;0.20;;;;;;;11.09;72.84;96533.06;4938835;29;20043;-78
2024/03/16 03:39:56;;;;;;;0.20;0.20;;;;;;;11.04;72.36;96538.03;4939215;29;20051;-79
2024/03/16 03:42:25;;;;;;;1.23;0.20;;;;;;;10.97;72.85;96547.56;4939193;29;20058;-79
2024/03/16 03:45:10;;;;;;;1.15;0.25;;;;;;;10.90;71.98;96541.50;4949407;29;20051;-79
2024/03/16 03:48:00;;;;;;;0.43;0.20;;;;;;;10.88;71.97;96543.47;4960763;29;20106;-81
2024/03/16 03:50:28;;;;;;;0.70;0.35;;;;;;;10.91;73.12;96537.88;4959971;29;20086;-83
2024/03/16 03:52:59;;;;;;;0.45;0.30;;;;;;;10.91;72.44;96543.91;4949139;29;20061;-79
2024/03/16 03:55:27;;;;;;;3.47;0.30;;;;;;;10.89;71.81;96539.88;4944439;29;20123;-78
2024/03/16 03:57:55;;;;;;;1.40;0.50;;;;;;;10.85;73.66;96549.06;4954857;29;20051;-83
2024/03/16 04:00:23;;;;;;;0.65;0.20;;;;;;;10.85;72.56;96539.44;4946989;29;20051;-79
2024/03/16 04:02:51;;;;;;;0.77;0.22;;;;;;;10.84;72.47;96537.00;4944302;29;20059;-81
2024/03/16 04:05:19;;;;;;;0.75;0.45;;;;;;;10.85;73.57;96546.47;4944312;29;20058;-81
2024/03/16 04:07:46;;;;;;;0.20;0.20;;;;;;;10.86;72.59;96542.84;4944114;29;20051;-80
2024/03/16 04:10:14;;;;;;;1.75;0.30;;;;;;;10.82;72.58;96545.03;4944262;29;20086;-81
2024/03/16 04:12:42;;;;;;;1.25;0.30;;;;;;;10.81;72.14;96548.63;4943821;29;20465;-81
2024/03/16 04:15:10;;;;;;;0.60;0.45;;;;;;;10.83;71.63;96548.44;4944088;29;20063;-79
2024/03/16 04:17:38;;;;;;;0.70;0.50;;;;;;;10.81;72.18;96548.63;4943436;29;20098;-81
2024/03/16 04:20:12;;;;;;;1.38;0.55;;;;;;;10.84;74.24;96542.22;4943467;29;20047;-83
2024/03/16 04:22:40;;;;;;;0.20;0.20;;;;;;;10.85;73.03;96546.47;4943404;29;20577;-81
2024/03/16 04:25:09;;;;;;;0.75;0.40;;;;;;;10.82;72.61;96549.41;4943375;29;20475;-83
2024/03/16 04:27:37;;;;;;;2.03;0.50;;;;;;;10.76;72.88;96555.38;4942467;29;20526;-81
2024/03/16 04:30:06;;;;;;;1.50;0.63;;;;;;;10.77;75.11;96555.19;4942012;29;20059;-80
2024/03/16 04:32:34;;;;;;;0.60;0.47;;;;;;;10.83;76.48;96559.69;4942810;29;20106;-80
2024/03/16 04:35:02;;;;;;;1.30;0.60;;;;;;;10.86;75.57;96551.47;4942675;29;20140;-80
2024/03/16 04:37:30;;;;;;;0.63;0.28;;;;;;;10.82;73.12;96560.69;4942135;29;20055;-82
2024/03/16 04:39:58;;;;;;;0.93;0.60;;;;;;;10.72;72.67;96560.97;4942556;29;20051;-80
2024/03/16 04:42:26;;;;;;;0.68;0.50;;;;;;;10.66;72.28;96564.31;4944054;29;20047;-79
2024/03/16 04:44:54;;;;;;;0.70;0.45;;;;;;;10.66;74.40;96566.09;4944510;29;20055;-79
2024/03/16 04:47:21;;;;;;;0.57;0.50;;;;;;;10.69;74.29;96566.56;4945012;29;20054;-81
2024/03/16 04:49:49;;;;;;;0.80;0.60;;;;;;;10.71;75.02;96569.78;4943147;29;20248;-81
2024/03/16 04:52:17;;;;;;;1.95;0.50;;;;;;;10.73;74.15;96572.19;4942192;29;20055;-79
2024/03/16 04:54:46;;;;;;;0.40;0.40;;;;;;;10.70;72.95;96564.75;4941543;29;20051;-79
2024/03/16 04:57:13;;;;;;;0.82;0.65;;;;;;;10.67;72.68;96573.75;4941585;29;20593;-80
2024/03/16 04:59:41;;;;;;;2.17;0.57;;;;;;;10.66;72.43;96574.75;4941064;29;20566;-81
2024/03/16 05:02:09;;;;;;;2.67;0.70;;;;;;;10.66;72.92;96572.13;4941024;29;20047;-79
2024/03/16 05:04:37;;;;;;;0.82;0.65;;;;;;;10.64;73.12;96576.72;4940847;29;20051;-81
2024/03/16 05:07:05;;;;;;;1.83;1.10;;;;;;;10.66;73.24;96573.94;4941100;29;20059;-81
2024/03/16 05:09:33;;;;;;;0.77;0.60;;;;;;;10.66;72.71;96581.75;4940859;29;20110;-79
2024/03/16 05:12:01;;;;;;;1.58;1.27;;;;;;;10.69;75.63;96592.66;4940902;29;20051;-79
2024/03/16 05:14:28;;;;;;;0.60;0.60;;;;;;;10.77;76.05;96593.53;4941345;29;20055;-80
2024/03/16 05:16:57;;;;;;;0.88;0.70;;;;;;;10.82;75.14;96606.81;4940859;29;20082;-83
2024/03/16 05:19:25;;;;;;;6.07;1.02;;;;;;;10.84;75.43;96604.84;4942329;29;20071;-86
2024/03/16 05:21:53;;;;;;;2.25;0.68;;;;;;;10.89;75.94;96612.94;4943517;29;20495;-79
2024/03/16 05:24:21;;;;;;;1.40;0.63;;;;;;;10.94;76.32;96615.81;4943376;29;20055;-82
2024/03/16 05:26:49;;;;;;;1.88;0.70;;;;;;;10.99;75.98;96617.88;4942839;29;20467;-79
2024/03/16 05:29:16;;;;;;;1.35;0.57;;;;;;;11.00;75.73;96620.31;4942334;29;20047;-81
2024/03/16 05:31:45;;;;;;;1.63;0.50;;;;;;;11.02;76.71;96620.09;4942354;29;20111;-83
2024/03/16 05:34:13;;;;;;;3.90;0.77;;;;;;;11.06;77.38;96631.78;4945725;29;20062;-82
2024/03/16 05:36:40;;;;;;;1.30;0.80;;;;;;;11.03;76.88;96621.72;4946810;29;20113;-79
2024/03/16 05:39:09;;;;;;;1.38;0.55;;;;;;;11.02;77.34;96626.16;4940717;29;20051;-79
2024/03/16 05:41:37;;;;;;;0.82;0.50;;;;;;;10.95;77.02;96633.06;4940402;29;20062;-82
2024/03/16 05:44:05;;;;;;;1.67;0.50;;;;;;;10.93;77.88;96638.50;4941008;29;20110;-79
2024/03/16 05:46:32;;;;;;;1.08;0.68;;;;;;;10.97;78.33;96644.16;4941458;29;20055;-79
2024/03/16 05:49:00;;;;;;;3.03;0.52;;;;;;;11.00;78.96;96651.63;4943108;29;20047;-80
2024/03/16 05:51:28;;;;;;;1.38;0.63;;;;;;;11.03;78.76;96650.44;4943764;29;20051;-79
2024/03/16 05:53:57;;;;;;;1.08;0.60;;;;;;;11.01;78.15;96657.66;4943382;29;20085;-79
2024/03/16 05:56:24;;;;;;;1.90;0.60;;;;;;;10.94;77.00;96652.34;4943575;29;20083;-79
2024/03/16 05:58:52;;;;;;;1.27;0.47;;;;;;;10.92;77.39;96664.78;4944149;29;20074;-81
2024/03/16 06:01:20;;;;;;;2.25;0.70;;;;;;;10.90;78.13;96658.91;4943938;29;20063;-80
2024/03/16 06:03:50;;;;;;;3.63;0.70;;;;;;;10.89;77.88;96660.72;4944297;29;20055;-79
2024/03/16 06:06:19;;;;;;;1.20;0.80;;;;;;;10.88;78.62;96656.50;4944898;29;20055;-80
2024/03/16 06:08:47;;;;;;;2.60;0.50;;;;;;;10.89;77.56;96659.94;4948264;29;20043;-82
2024/03/16 06:11:15;;;;;;;1.40;0.60;;;;;;;10.88;79.15;96664.31;4945052;29;20055;-81
2024/03/16 06:13:44;;;;;;;2.47;0.80;;;;;;;10.92;79.00;96664.78;4945575;29;20133;-81
2024/03/16 06:16:12;;;;;;;4.05;0.50;;;;;;;10.93;77.68;96664.59;4946112;29;20055;-84
2024/03/16 06:18:46;;;;;;;0.60;0.40;;;;;;;10.93;77.70;96676.81;4945749;29;20050;-79
2024/03/16 06:21:14;;;;;;;2.03;0.82;;;;;;;10.96;78.23;96666.03;4945369;29;20059;-81
2024/03/16 06:23:42;;;;;;;0.30;0.30;;;;;;;10.97;78.06;96672.84;4943630;29;20078;-83
2024/03/16 06:26:16;;;;;;;3.08;0.65;;;;;;;10.99;78.42;96678.69;4952285;29;20054;-83
2024/03/16 06:28:47;;;;;;;1.70;0.80;;;;;;;11.02;78.76;96680.13;4960162;29;20047;-80
2024/03/16 06:31:18;;;;;;;1.25;0.43;;;;;;;11.02;77.11;96677.53;4954805;29;20066;-79
2024/03/16 06:33:48;;;;;;;2.10;0.45;;;;;;;11.00;78.46;96677.72;4944876;29;20051;-82
2024/03/16 06:36:16;;;;;;;0.93;0.57;;;;;;;10.98;78.00;96692.75;4945548;29;20062;-83
2024/03/16 06:38:43;;;;;;;1.75;0.50;;;;;;;11.03;78.74;96690.41;4945571;29;20048;-81
2024/03/16 06:41:11;;;;;;;2.03;0.80;;;;;;;11.03;77.76;96695.63;4944511;29;20102;-82
2024/03/16 06:43:39;;;;;;;0.93;0.52;;;;;;;11.07;78.59;96696.88;4943422;28;20059;-79
2024/03/16 06:46:08;;;;;;;0.45;0.40;;;;;;;11.06;77.71;96695.28;4942866;29;20047;-80
2024/03/16 06:48:36;;;;;;;1.15;0.40;;;;;;;11.09;78.26;96702.72;4944272;29;20133;-80
2024/03/16 06:51:04;;;;;;;0.43;0.40;;;;;;;11.14;78.16;96704.78;4942713;29;20434;-78
2024/03/16 06:53:32;;;;;;;0.70;0.50;;;;;;;11.13;77.07;96701.38;4941431;29;20134;-79
2024/03/16 06:56:03;;;;;;;1.88;0.60;;;;;;;11.18;78.55;96711.28;4948718;29;20051;-83
2024/03/16 06:58:31;;;;;;;1.75;0.60;;;;;;;11.19;76.37;96706.84;4950817;29;20063;-83
2024/03/16 07:01:00;;;;;;;2.38;0.60;;;;;;;11.17;76.44;96704.41;4938852;28;20059;-83
2024/03/16 07:03:28;;;;;;;0.57;0.22;;;;;;;11.17;76.81;96712.25;4961609;28;20102;-83
2024/03/16 07:05:56;;;;;;;1.05;0.65;;;;;;;11.17;76.77;96704.41;4956594;28;20483;-83
2024/03/16 07:08:24;;;;;;;3.22;0.80;;;;;;;11.19;77.01;96714.69;4960668;29;20047;-83
2024/03/16 07:10:52;;;;;;;2.55;0.80;;;;;;;11.21;77.24;96717.94;4953218;29;20059;-82
2024/03/16 07:13:20;;;;;;;0.73;0.45;;;;;;;11.24;78.00;96728.00;4973936;28;20051;-87
2024/03/16 07:15:50;;;;;;;1.52;0.63;;;;;;;11.30;78.09;96725.50;4972634;28;20082;-86
2024/03/16 07:18:18;;;;;;;1.25;0.60;;;;;;;11.30;77.81;96730.72;4984228;28;20110;-85
2024/03/16 07:20:46;;;;;;;1.65;0.40;;;;;;;11.34;77.56;96741.59;4966074;28;20046;-84
2024/03/16 07:23:14;;;;;;;0.65;0.40;;;;;;;11.40;77.77;96740.84;4972355;28;20061;-85
2024/03/16 07:25:42;;;;;;;0.57;0.47;;;;;;;11.45;78.31;96738.50;4988353;28;20077;-83
2024/03/16 07:28:11;;;;;;;2.00;0.40;;;;;;;11.48;76.96;96739.97;4970914;28;20074;-84
2024/03/16 07:30:41;;;;;;;1.48;0.50;;;;;;;11.50;77.17;96744.00;4968640;28;20047;-85
2024/03/16 07:33:10;;;;;;;1.60;0.60;;;;;;;11.50;76.65;96746.59;4964932;28;20521;-82
2024/03/16 07:35:39;;;;;;;1.27;0.30;;;;;;;11.53;76.48;96738.41;4964663;28;20053;-84
2024/03/16 07:38:08;;;;;;;0.88;0.43;;;;;;;11.58;75.80;96742.25;4960177;29;20047;-82
2024/03/16 07:40:36;;;;;;;2.03;0.50;;;;;;;11.59;76.03;96749.94;4960096;28;20061;-80
2024/03/16 07:43:06;;;;;;;1.33;0.55;;;;;;;11.62;76.42;96753.97;4961916;28;20106;-80
2024/03/16 07:48:13;;;;;;;0.63;0.30;;;;;;;11.69;74.71;96749.63;4987565;28;20050;-79
2024/03/16 07:50:40;;;;;;;0.90;0.30;;;;;;;11.63;73.98;96750.34;4968616;28;20043;-80
2024/03/16 07:53:10;;;;;;;0.38;0.20;;;;;;;11.62;75.21;96759.19;4969129;28;20494;-79
2024/03/16 07:55:38;;;;;;;2.63;0.30;;;;;;;11.65;75.19;96754.38;4972935;28;20137;-80
2024/03/16 07:58:07;;;;;;;1.45;0.30;;;;;;;11.70;75.91;96756.47;4950628;29;20054;-80
2024/03/16 08:00:36;;;;;;;1.55;0.50;;;;;;;11.74;75.16;96757.69;4947675;28;20133;-80
2024/03/16 08:03:04;;;;;;;1.33;0.45;;;;;;;11.78;75.39;96768.59;4958443;28;20101;-80
2024/03/16 08:05:35;;;;;;;1.13;0.55;;;;;;;11.81;75.79;96774.28;4957957;28;20050;-80
2024/03/16 08:08:03;;;;;;;2.72;0.75;;;;;;;11.84;75.19;96776.50;4960233;28;20057;-80
2024/03/16 08:10:32;;;;;;;1.92;0.40;;;;;;;11.83;74.55;96777.53;4957696;28;20051;-80
2024/03/16 08:13:00;;;;;;;0.45;0.20;;;;;;;11.82;73.63;96788.16;4958214;28;20082;-80
2024/03/16 08:15:28;;;;;;;0.40;0.30;;;;;;;11.80;74.10;96785.72;4952596;28;20055;-80
2024/03/16 08:17:57;;;;;;;2.38;0.50;;;;;;;11.79;73.90;96789.34;4939152;29;20123;-80
2024/03/16 08:20:25;;;;;;;1.10;0.40;;;;;;;11.80;75.25;96792.75;4939384;29;20044;-80
2024/03/16 08:22:54;;;;;;;2.28;0.70;;;;;;;11.80;75.62;96795.38;4939049;29;20051;-80
2024/03/16 08:25:22;;;;;;;1.65;0.55;;;;;;;11.79;74.74;96799.78;4955970;28;20431;-79
2024/03/16 08:27:50;;;;;;;2.03;0.50;;;;;;;11.75;75.46;96801.16;4957669;28;20057;-80
2024/03/16 08:30:18;;;;;;;3.15;0.82;;;;;;;11.66;75.34;96800.44;4957748;28;20138;-80
2024/03/16 08:32:46;;;;;;;3.35;0.85;;;;;;;11.60;76.53;96808.22;4958267;28;20055;-80
2024/03/16 08:35:14;;;;;;;1.55;0.45;;;;;;;11.55;76.37;96809.56;4958240;28;20081;-80
2024/03/16 08:37:43;;;;;;;3.05;1.60;;;;;;;11.51;76.36;96810.91;4958256;28;20050;-80
2024/03/16 08:40:12;;;;;;;1.25;0.77;;;;;;;11.49;76.80;96817.31;4953288;28;20049;-80
2024/03/16 08:42:41;;;;;;;2.03;0.80;;;;;;;11.44;76.90;96807.41;4939125;29;20055;-80
2024/03/16 08:45:10;;;;;;;2.35;0.85;;;;;;;11.40;77.41;96811.38;4939027;28;20047;-79
2024/03/16 08:47:41;;;;;;;1.55;0.40;;;;;;;11.37;78.00;96814.38;4958527;28;20059;-80
2024/03/16 08:50:09;;;;;;;0.20;0.20;;;;;;;11.36;77.23;96811.94;4967831;28;20047;-80
2024/03/16 08:52:38;;;;;;;0.98;0.40;;;;;;;11.36;77.18;96817.97;4977064;28;20059;-80
2024/03/16 08:55:06;;;;;;;0.35;0.30;;;;;;;11.39;77.50;96815.00;4976205;28;20054;-80
2024/03/16 08:57:34;;;;;;;1.05;0.60;;;;;;;11.45;77.99;96811.63;4975882;28;20047;-80
2024/03/16 09:00:04;;;;;;;0.77;0.40;;;;;;;11.52;78.31;96822.16;4952841;28;20106;-80
2024/03/16 09:02:32;;;;;;;1.88;0.80;;;;;;;11.59;78.09;96827.47;4946576;28;20117;-80
2024/03/16 09:05:00;;;;;;;1.10;0.70;;;;;;;11.63;78.10;96819.13;4950718;28;20051;-80
2024/03/16 09:07:29;;;;;;;0.82;0.40;;;;;;;11.66;78.15;96828.38;4960075;28;20108;-80
2024/03/16 09:09:57;;;;;;;1.38;0.70;;;;;;;11.64;77.39;96833.78;4961345;28;20043;-80
2024/03/16 09:12:26;;;;;;;1.35;0.52;;;;;;;11.62;78.19;96834.97;4957126;28;20050;-80
2024/03/16 09:14:55;;;;;;;1.75;0.50;;;;;;;11.63;78.37;96839.19;4963079;28;20054;-80
2024/03/16 09:17:24;;;;;;;0.32;0.20;;;;;;;11.68;77.97;96837.66;4962595;28;20476;-80
2024/03/16 09:19:52;;;;;;;1.17;0.65;;;;;;;11.69;76.89;96839.25;4963389;28;20051;-80
2024/03/16 09:22:20;;;;;;;1.80;0.65;;;;;;;11.69;76.66;96841.88;4958966;28;20054;-80
2024/03/16 09:24:48;;;;;;;0.70;0.60;;;;;;;11.72;77.94;96845.94;4971194;28;20051;-80
2024/03/16 09:27:16;;;;;;;1.48;0.70;;;;;;;11.81;77.77;96852.69;4972185;28;20075;-80
2024/03/16 09:29:44;;;;;;;1.75;0.40;;;;;;;11.91;76.59;96848.00;4968914;28;20058;-80
2024/03/16 09:32:13;;;;;;;1.15;0.52;;;;;;;12.02;77.60;96845.91;4964919;28;20062;-80
2024/03/16 09:34:41;;;;;;;0.90;0.40;;;;;;;12.11;77.00;96847.41;4962290;28;20077;-80
2024/03/16 09:37:09;;;;;;;2.10;0.70;;;;;;;12.12;76.08;96838.59;4956075;28;20502;-79
2024/03/16 09:39:38;;;;;;;2.97;0.77;;;;;;;12.16;76.45;96840.63;4953432;28;20053;-80
2024/03/16 09:42:07;;;;;;;3.03;0.73;;;;;;;12.21;76.93;96836.66;4968397;28;20053;-81
2024/03/16 09:44:37;;;;;;;0.93;0.50;;;;;;;12.24;76.11;96842.31;4970441;28;20055;-80
2024/03/16 09:47:05;;;;;;;0.60;0.40;;;;;;;12.26;76.61;96853.41;4945151;28;20059;-80
2024/03/16 09:49:35;;;;;;;1.50;0.50;;;;;;;12.28;75.72;96859.25;4924433;29;20070;-80
2024/03/16 09:52:03;;;;;;;0.90;0.40;;;;;;;12.30;75.82;96859.88;4924806;29;20066;-80
2024/03/16 09:54:31;;;;;;;1.45;0.50;;;;;;;12.32;75.87;96862.31;4939330;29;20063;-80
2024/03/16 09:56:58;;;;;;;0.95;0.65;;;;;;;12.33;75.91;96856.91;4939576;29;20067;-80
2024/03/16 09:59:29;;;;;;;1.13;0.60;;;;;;;12.33;76.59;96851.69;4936387;28;20057;-81
2024/03/16 10:02:01;;;;;;;1.30;0.60;;;;;;;12.32;75.86;96855.28;4954566;28;20043;-81
2024/03/16 10:04:32;;;;;;;1.05;0.47;;;;;;;12.31;75.50;96858.91;4967842;28;20031;-81
2024/03/16 10:06:59;;;;;;;1.48;0.57;;;;;;;12.32;76.06;96860.50;4961674;28;20050;-80
2024/03/16 10:09:27;;;;;;;1.75;0.63;;;;;;;12.32;75.59;96860.50;4950293;28;20051;-80
2024/03/16 10:11:54;;;;;;;0.70;0.20;;;;;;;12.32;76.06;96859.69;4945454;28;20050;-80
2024/03/16 10:14:21;;;;;;;0.70;0.40;;;;;;;12.33;76.62;96862.13;4944104;28;20511;-80
2024/03/16 10:16:50;;;;;;;0.70;0.30;;;;;;;12.35;76.00;96865.38;4930536;29;20058;-79
2024/03/16 10:19:20;;;;;;;4.05;0.65;;;;;;;12.36;75.68;96856.53;4942591;29;20051;-80
2024/03/16 10:21:47;;;;;;;2.08;0.60;;;;;;;12.35;75.83;96862.75;4925193;28;20523;-79
2024/03/16 10:24:14;;;;;;;0.88;0.30;;;;;;;12.37;74.81;96865.19;4931196;28;20062;-79
2024/03/16 10:26:41;;;;;;;1.30;0.55;;;;;;;12.35;75.47;96862.75;4941293;28;20058;-81
2024/03/16 10:29:08;;;;;;;2.38;0.98;;;;;;;12.33;74.97;96867.38;4934010;29;20507;-79
2024/03/16 10:31:35;;;;;;;0.85;0.40;;;;;;;12.39;75.21;96865.00;4934435;28;20057;-79
2024/03/16 10:34:02;;;;;;;0.85;0.30;;;;;;;12.48;74.52;96863.88;4940946;28;20058;-79
2024/03/16 10:36:29;;;;;;;4.10;0.52;;;;;;;12.58;74.80;96861.75;4959334;28;20066;-79
2024/03/16 10:38:55;;;;;;;1.27;0.68;;;;;;;12.64;74.37;96868.88;4958678;28;20113;-80
2024/03/16 10:41:22;;;;;;;0.88;0.40;;;;;;;12.66;74.09;96874.72;4942864;28;20049;-79
2024/03/16 10:43:49;;;;;;;0.95;0.50;;;;;;;12.72;74.39;96868.72;4947108;28;20129;-79
2024/03/16 10:46:17;;;;;;;0.52;0.32;;;;;;;12.81;73.88;96863.34;4938219;28;200678;-79
2024/03/16 10:48:44;;;;;;;2.50;0.55;;;;;;;12.86;73.72;96871.47;4935211;29;20083;-78
2024/03/16 10:51:12;;;;;;;2.78;0.40;;;;;;;12.91;74.08;96871.69;4940282;29;20062;-79
2024/03/16 10:53:39;;;;;;;2.42;0.70;;;;;;;12.97;74.13;96870.94;4926117;29;20058;-79
2024/03/16 10:56:06;;;;;;;1.35;0.70;;;;;;;13.01;73.62;96866.94;4924354;29;20062;-79
2024/03/16 10:58:33;;;;;;;0.98;0.30;;;;;;;13.06;73.32;96869.00;4924019;29;20526;-79
2024/03/16 11:01:02;;;;;;;1.23;0.55;;;;;;;13.08;73.52;96870.41;4931492;28;20074;-79
2024/03/16 11:03:28;;;;;;;0.93;0.60;;;;;;;13.09;72.94;96882.50;4947525;28;20062;-80
2024/03/16 11:06:01;;;;;;;0.77;0.60;;;;;;;13.08;73.58;96874.84;4945705;28;20113;-79
2024/03/16 11:08:36;;;;;;;0.68;0.57;;;;;;;13.04;71.74;96884.88;4940115;28;20059;-79
2024/03/16 11:11:04;;;;;;;1.52;0.80;;;;;;;13.04;73.07;96869.19;4941433;29;20419;-80
2024/03/16 11:13:31;;;;;;;4.07;0.57;;;;;;;13.01;72.16;96882.66;4927148;29;20055;-80
2024/03/16 11:15:58;;;;;;;0.60;0.40;;;;;;;12.97;72.11;96884.84;4933185;28;20458;-79
2024/03/16 11:18:52;;;;;;;2.47;0.73;;;;;;;12.89;72.48;96886.78;4945297;28;20050;-79
2024/03/16 11:21:20;;;;;;;1.13;0.70;;;;;;;12.83;72.26;96883.09;4960828;28;20078;-80
2024/03/16 11:23:47;;;;;;;2.20;0.60;;;;;;;12.80;72.62;96883.50;4944615;28;20046;-80
2024/03/16 11:26:38;;;;;;;4.53;0.47;;;;;;;12.74;70.86;96900.75;4959422;28;20062;-80
2024/03/16 11:29:14;;;;;;;0.65;0.20;;;;;;;12.71;70.59;96893.28;4950500;29;20047;-80
2024/03/16 11:31:41;;;;;;;0.85;0.45;;;;;;;12.66;70.08;96882.56;4924613;29;20059;-80
2024/03/16 11:34:08;;;;;;;0.90;0.30;;;;;;;12.62;69.88;96891.78;4940162;29;20051;-80
2024/03/16 11:36:37;;;;;;;3.40;0.45;;;;;;;12.60;69.67;96893.78;4923696;29;20400;-80
2024/03/16 11:39:10;;;;;;;2.20;0.50;;;;;;;12.64;70.20;96889.81;4941783;29;20059;-80
2024/03/16 11:41:44;;;;;;;1.75;0.40;;;;;;;12.71;71.91;96893.28;4940365;29;20062;-80